Time;durP1;ratioP1;P1;durP2;ratioP2;P2;SDS_P1;SDS_P2;PMS_P1;PMS_P2;Temp;Humidity;BMP_temperature;BMP_pressure;BME280_temperature;BME280_humidity;BME280_pressure;Samples;Min_cycle;Max_cycle;Signal;HPM_P1;HPM_P2
2022/07/18 00:01:36;;;;;;;4.28;2.50;;;;;;;;;;5006509;28;20030;-72
2022/07/18 00:04:02;;;;;;;5.53;2.70;;;;;;;;;;5009609;28;20033;-73
2022/07/18 00:06:27;;;;;;;4.60;2.65;;;;;;;;;;5008095;28;20103;-73
2022/07/18 00:08:53;;;;;;;6.10;2.58;;;;;;;;;;5009080;28;20421;-72
2022/07/18 00:11:19;;;;;;;5.35;2.88;;;;;;;;;;5008552;28;20033;-72
2022/07/18 00:13:45;;;;;;;4.65;2.53;;;;;;;;;;5011067;28;20025;-72
2022/07/18 00:16:10;;;;;;;5.25;2.33;;;;;;;;;;5005707;28;20080;-73
2022/07/18 00:18:36;;;;;;;7.18;2.47;;;;;;;;;;5010784;28;20060;-73
2022/07/18 00:21:01;;;;;;;5.05;2.58;;;;;;;;;;5008848;28;20029;-73
2022/07/18 00:23:26;;;;;;;4.03;2.45;;;;;;;;;;5008905;28;20034;-72
2022/07/18 00:25:52;;;;;;;5.25;2.70;;;;;;;;;;5005999;28;20471;-72
2022/07/18 00:28:17;;;;;;;5.03;2.45;;;;;;;;;;5006041;28;20022;-73
2022/07/18 00:30:43;;;;;;;4.38;2.33;;;;;;;;;;5007903;28;20041;-73
2022/07/18 00:33:08;;;;;;;4.60;2.30;;;;;;;;;;5005876;28;20049;-72
2022/07/18 00:35:34;;;;;;;4.35;2.45;;;;;;;;;;5009397;28;20041;-72
2022/07/18 00:38:01;;;;;;;3.65;2.28;;;;;;;;;;5004755;28;20030;-72
2022/07/18 00:40:26;;;;;;;4.50;2.25;;;;;;;;;;5009633;28;20022;-73
2022/07/18 00:42:52;;;;;;;5.38;2.53;;;;;;;;;;5001583;28;20378;-73
2022/07/18 00:45:17;;;;;;;3.80;2.35;;;;;;;;;;5003929;28;20440;-73
2022/07/18 00:47:43;;;;;;;4.13;2.50;;;;;;;;;;5006897;28;20088;-72
2022/07/18 00:50:09;;;;;;;4.20;2.42;;;;;;;;;;5009299;28;20399;-73
2022/07/18 00:52:36;;;;;;;4.97;2.60;;;;;;;;;;5005452;28;20030;-73
2022/07/18 00:55:03;;;;;;;4.72;2.72;;;;;;;;;;5007209;28;20025;-72
2022/07/18 00:57:28;;;;;;;5.00;2.88;;;;;;;;;;5007671;28;20022;-73
2022/07/18 01:02:39;;;;;;;5.95;3.28;;;;;;;;;;5002849;28;20113;-72
2022/07/18 01:05:06;;;;;;;5.35;3.08;;;;;;;;;;5010191;28;20076;-72
2022/07/18 01:07:33;;;;;;;5.32;3.22;;;;;;;;;;5005370;28;20029;-73
2022/07/18 01:09:59;;;;;;;6.13;3.50;;;;;;;;;;5007677;28;20440;-72
2022/07/18 01:12:25;;;;;;;6.55;4.00;;;;;;;;;;5008720;28;20116;-73
2022/07/18 01:14:51;;;;;;;6.88;3.80;;;;;;;;;;5008127;28;20042;-73
2022/07/18 01:17:18;;;;;;;6.82;3.80;;;;;;;;;;5006980;28;20033;-74
2022/07/18 01:19:44;;;;;;;5.72;3.70;;;;;;;;;;5006788;28;20033;-73
2022/07/18 01:22:11;;;;;;;5.90;3.65;;;;;;;;;;5008554;28;20477;-74
2022/07/18 01:24:37;;;;;;;6.95;4.22;;;;;;;;;;5006246;28;20026;-73
2022/07/18 01:27:03;;;;;;;6.10;3.97;;;;;;;;;;5006844;28;20025;-74
2022/07/18 01:29:28;;;;;;;5.75;3.67;;;;;;;;;;5003048;28;20037;-73
2022/07/18 01:31:53;;;;;;;7.55;4.20;;;;;;;;;;5007063;28;20036;-73
2022/07/18 01:34:23;;;;;;;6.10;3.88;;;;;;;;;;5006127;28;20046;-73
2022/07/18 01:36:48;;;;;;;5.90;3.85;;;;;;;;;;5001692;28;20054;-73
2022/07/18 01:39:14;;;;;;;7.07;4.00;;;;;;;;;;5007035;28;20076;-73
2022/07/18 01:41:40;;;;;;;6.00;3.97;;;;;;;;;;5000752;28;20021;-72
2022/07/18 01:44:06;;;;;;;6.85;4.35;;;;;;;;;;5002430;28;20026;-74
2022/07/18 01:46:32;;;;;;;8.52;4.32;;;;;;;;;;5001321;28;20021;-73
2022/07/18 01:48:58;;;;;;;7.15;4.40;;;;;;;;;;5006483;28;20036;-73
2022/07/18 01:51:30;;;;;;;6.57;4.30;;;;;;;;;;5004311;28;20040;-74
2022/07/18 01:53:59;;;;;;;;;;;;;;;;;;5004702;28;20030;-73
2022/07/18 01:56:24;;;;;;;6.65;4.13;;;;;;;;;;5001646;28;19920;-73
2022/07/18 01:58:50;;;;;;;6.68;3.97;;;;;;;;;;4995467;28;20041;-74
2022/07/18 02:01:16;;;;;;;6.90;3.90;;;;;;;;;;4999039;28;20478;-74
2022/07/18 02:03:42;;;;;;;8.10;4.55;;;;;;;;;;5001398;28;20036;-73
2022/07/18 02:06:07;;;;;;;6.97;4.10;;;;;;;;;;5013409;28;20037;-72
2022/07/18 02:08:33;;;;;;;6.55;4.30;;;;;;;;;;5000837;28;20041;-73
2022/07/18 02:10:58;;;;;;;6.20;4.40;;;;;;;;;;5016625;28;20034;-73
2022/07/18 02:13:24;;;;;;;7.97;4.40;;;;;;;;;;4998248;28;20034;-72
2022/07/18 02:15:50;;;;;;;7.55;4.45;;;;;;;;;;5004674;28;20497;-72
2022/07/18 02:18:15;;;;;;;7.60;4.40;;;;;;;;;;5001998;28;20089;-74
2022/07/18 02:20:41;;;;;;;8.13;4.13;;;;;;;;;;5017952;28;20022;-72
2022/07/18 02:23:07;;;;;;;7.10;4.30;;;;;;;;;;5001510;28;20084;-72
2022/07/18 02:25:34;;;;;;;7.63;4.43;;;;;;;;;;5005172;28;20390;-73
2022/07/18 02:27:59;;;;;;;6.47;4.22;;;;;;;;;;5002436;28;20021;-73
2022/07/18 02:30:25;;;;;;;6.20;3.90;;;;;;;;;;5003014;28;20033;-73
2022/07/18 02:32:50;;;;;;;6.07;3.88;;;;;;;;;;5003218;28;20112;-73
2022/07/18 02:35:15;;;;;;;6.53;4.03;;;;;;;;;;5008238;28;20073;-73
2022/07/18 02:37:41;;;;;;;5.20;3.67;;;;;;;;;;5008039;28;20030;-73
2022/07/18 02:40:09;;;;;;;7.32;3.90;;;;;;;;;;5008874;28;20030;-74
2022/07/18 02:42:34;;;;;;;6.13;3.55;;;;;;;;;;5009910;28;20025;-73
2022/07/18 02:44:59;;;;;;;6.60;4.18;;;;;;;;;;5008801;28;20022;-73
2022/07/18 02:47:25;;;;;;;6.38;4.10;;;;;;;;;;5008628;28;20034;-73
2022/07/18 02:49:50;;;;;;;6.35;3.75;;;;;;;;;;5003454;28;20032;-73
2022/07/18 02:52:15;;;;;;;7.18;3.78;;;;;;;;;;5008895;28;20030;-73
2022/07/18 02:54:41;;;;;;;6.53;3.65;;;;;;;;;;5004055;28;20111;-73
2022/07/18 02:57:07;;;;;;;8.07;3.80;;;;;;;;;;5008822;28;20125;-73
2022/07/18 02:59:33;;;;;;;6.70;4.00;;;;;;;;;;5006327;28;20063;-73
2022/07/18 03:01:58;;;;;;;8.43;4.10;;;;;;;;;;5000853;28;20030;-74
2022/07/18 03:04:24;;;;;;;5.32;3.38;;;;;;;;;;5005388;28;20018;-73
2022/07/18 03:06:50;;;;;;;5.82;3.22;;;;;;;;;;5005688;28;20061;-73
2022/07/18 03:09:16;;;;;;;5.18;3.42;;;;;;;;;;5003628;28;20034;-73
2022/07/18 03:11:42;;;;;;;5.30;3.17;;;;;;;;;;5005528;28;20474;-74
2022/07/18 03:14:07;;;;;;;5.88;3.25;;;;;;;;;;5004500;28;20036;-73
2022/07/18 03:16:33;;;;;;;5.75;3.47;;;;;;;;;;5005055;28;20382;-73
2022/07/18 03:18:59;;;;;;;5.03;3.40;;;;;;;;;;5012201;28;20071;-74
2022/07/18 03:21:24;;;;;;;6.78;3.28;;;;;;;;;;5005107;28;21685;-73
2022/07/18 03:23:49;;;;;;;7.38;3.70;;;;;;;;;;5005234;28;20025;-74
2022/07/18 03:26:15;;;;;;;5.60;2.92;;;;;;;;;;5006350;28;20482;-73
2022/07/18 03:28:40;;;;;;;6.30;3.20;;;;;;;;;;5008512;28;20383;-73
2022/07/18 03:31:06;;;;;;;7.32;3.13;;;;;;;;;;5006322;28;20515;-73
2022/07/18 03:33:31;;;;;;;4.55;2.80;;;;;;;;;;5005584;28;20053;-73
2022/07/18 03:35:57;;;;;;;5.60;3.17;;;;;;;;;;5011546;28;20022;-72
2022/07/18 03:38:22;;;;;;;6.55;3.50;;;;;;;;;;5004575;28;20048;-73
2022/07/18 03:40:48;;;;;;;5.53;3.50;;;;;;;;;;5008085;28;20030;-72
2022/07/18 03:43:13;;;;;;;5.30;2.88;;;;;;;;;;5002999;28;20038;-73
2022/07/18 03:45:39;;;;;;;7.00;3.40;;;;;;;;;;5005255;28;20392;-73
2022/07/18 03:48:04;;;;;;;5.18;2.95;;;;;;;;;;5007496;28;20176;-73
2022/07/18 03:50:30;;;;;;;5.18;2.97;;;;;;;;;;5007046;28;20030;-73
2022/07/18 03:52:55;;;;;;;5.28;3.38;;;;;;;;;;4999594;28;20065;-73
2022/07/18 03:55:21;;;;;;;6.45;2.97;;;;;;;;;;5002774;28;20040;-74
2022/07/18 03:57:47;;;;;;;5.88;3.00;;;;;;;;;;5000941;28;20022;-73
2022/07/18 04:00:13;;;;;;;6.10;2.75;;;;;;;;;;5008856;28;20443;-73
2022/07/18 04:02:43;;;;;;;5.13;2.70;;;;;;;;;;5006204;28;20116;-73
2022/07/18 04:05:10;;;;;;;5.22;2.65;;;;;;;;;;5006926;28;20030;-74
2022/07/18 04:07:36;;;;;;;5.30;2.92;;;;;;;;;;5006912;28;20137;-73
2022/07/18 04:10:03;;;;;;;5.82;2.70;;;;;;;;;;5012747;28;20485;-73
2022/07/18 04:12:30;;;;;;;4.97;2.85;;;;;;;;;;5004858;28;20026;-72
2022/07/18 04:14:55;;;;;;;5.60;2.90;;;;;;;;;;5006583;28;20396;-73
2022/07/18 04:17:20;;;;;;;4.82;2.80;;;;;;;;;;5008666;28;20030;-73
2022/07/18 04:19:46;;;;;;;5.80;2.55;;;;;;;;;;5005281;28;20030;-73
2022/07/18 04:22:11;;;;;;;4.47;2.53;;;;;;;;;;5011745;28;20030;-74
2022/07/18 04:24:36;;;;;;;5.60;2.80;;;;;;;;;;5009472;28;20028;-74
2022/07/18 04:27:02;;;;;;;5.00;2.55;;;;;;;;;;5005037;28;20092;-73
2022/07/18 04:29:28;;;;;;;4.10;2.50;;;;;;;;;;5009742;28;20030;-74
2022/07/18 04:31:54;;;;;;;6.30;2.90;;;;;;;;;;5008200;28;20155;-73
2022/07/18 04:34:19;;;;;;;4.97;2.67;;;;;;;;;;5007196;28;20081;-74
2022/07/18 04:36:45;;;;;;;4.75;2.53;;;;;;;;;;5009228;28;20020;-74
2022/07/18 04:39:10;;;;;;;4.57;2.70;;;;;;;;;;5008576;28;20034;-74
2022/07/18 04:41:35;;;;;;;4.50;2.60;;;;;;;;;;5008879;28;20026;-74
2022/07/18 04:44:01;;;;;;;4.32;2.25;;;;;;;;;;5009911;28;20084;-74
2022/07/18 04:46:26;;;;;;;4.85;2.30;;;;;;;;;;5010928;28;20049;-72
2022/07/18 04:48:51;;;;;;;5.28;2.40;;;;;;;;;;5008145;28;20022;-73
2022/07/18 04:51:17;;;;;;;4.75;2.40;;;;;;;;;;5007791;28;20447;-73
2022/07/18 04:53:42;;;;;;;6.97;2.50;;;;;;;;;;5007338;28;20026;-74
2022/07/18 04:56:08;;;;;;;5.93;2.58;;;;;;;;;;5007639;28;20026;-74
2022/07/18 04:58:33;;;;;;;4.50;2.17;;;;;;;;;;5010160;28;20033;-74
2022/07/18 05:00:58;;;;;;;5.03;2.45;;;;;;;;;;5008157;28;20112;-73
2022/07/18 05:03:24;;;;;;;4.25;2.28;;;;;;;;;;5011718;28;20036;-73
2022/07/18 05:05:49;;;;;;;4.30;2.60;;;;;;;;;;5008200;28;20049;-73
2022/07/18 05:08:15;;;;;;;5.20;2.60;;;;;;;;;;5008803;28;20068;-73
2022/07/18 05:10:40;;;;;;;5.18;2.67;;;;;;;;;;5022763;28;20076;-73
2022/07/18 05:13:06;;;;;;;4.55;2.22;;;;;;;;;;5008311;28;20030;-73
2022/07/18 05:15:31;;;;;;;4.45;2.60;;;;;;;;;;5008326;28;20508;-73
2022/07/18 05:17:56;;;;;;;5.72;2.90;;;;;;;;;;5001382;28;20085;-73
2022/07/18 05:20:24;;;;;;;5.32;2.50;;;;;;;;;;5010038;28;20017;-73
2022/07/18 05:22:51;;;;;;;5.30;2.33;;;;;;;;;;5008446;28;20614;-73
2022/07/18 05:25:17;;;;;;;4.35;2.10;;;;;;;;;;5004476;28;20030;-73
2022/07/18 05:27:43;;;;;;;5.03;2.50;;;;;;;;;;5008112;28;20034;-73
2022/07/18 05:30:11;;;;;;;6.03;2.83;;;;;;;;;;5003837;28;20026;-73
2022/07/18 05:32:38;;;;;;;7.00;2.83;;;;;;;;;;5018958;28;20062;-74
2022/07/18 05:35:05;;;;;;;3.22;1.77;;;;;;;;;;5008340;28;20042;-73
2022/07/18 05:37:31;;;;;;;3.75;2.20;;;;;;;;;;5008094;28;20038;-73
2022/07/18 05:39:56;;;;;;;5.18;2.30;;;;;;;;;;5006122;28;20030;-74
2022/07/18 05:42:22;;;;;;;5.80;2.40;;;;;;;;;;5005353;28;20493;-73
2022/07/18 05:44:47;;;;;;;6.63;3.20;;;;;;;;;;5008222;28;20026;-74
2022/07/18 05:47:13;;;;;;;4.60;2.80;;;;;;;;;;5005220;28;20034;-73
2022/07/18 05:49:38;;;;;;;6.85;2.47;;;;;;;;;;5008268;28;20028;-73
2022/07/18 05:52:04;;;;;;;6.45;2.58;;;;;;;;;;5007919;28;20394;-74
2022/07/18 05:54:30;;;;;;;4.60;2.40;;;;;;;;;;5000444;28;20494;-74
2022/07/18 05:56:55;;;;;;;6.13;2.55;;;;;;;;;;5005021;28;20030;-73
2022/07/18 05:59:21;;;;;;;6.38;2.65;;;;;;;;;;5009541;28;20032;-73
2022/07/18 06:01:47;;;;;;;5.45;2.38;;;;;;;;;;5004153;28;20363;-74
2022/07/18 06:04:13;;;;;;;6.03;2.78;;;;;;;;;;5005460;28;20032;-72
2022/07/18 06:06:38;;;;;;;4.00;2.50;;;;;;;;;;5003955;28;20394;-73
2022/07/18 06:09:04;;;;;;;4.40;2.60;;;;;;;;;;5008873;28;20022;-73
2022/07/18 06:11:30;;;;;;;6.25;2.88;;;;;;;;;;5006030;28;20062;-74
2022/07/18 06:13:55;;;;;;;9.10;3.63;;;;;;;;;;5006715;28;20056;-73
2022/07/18 06:16:21;;;;;;;8.23;3.33;;;;;;;;;;5004569;28;20382;-73
2022/07/18 06:18:46;;;;;;;5.35;3.10;;;;;;;;;;5005580;28;20028;-73
2022/07/18 06:21:12;;;;;;;6.38;2.97;;;;;;;;;;5009004;28;20036;-73
2022/07/18 06:23:38;;;;;;;5.57;2.80;;;;;;;;;;5006039;28;20473;-73
2022/07/18 06:26:04;;;;;;;5.72;2.63;;;;;;;;;;4998359;28;20038;-73
2022/07/18 06:28:30;;;;;;;4.88;2.63;;;;;;;;;;5003283;28;20041;-74
2022/07/18 06:30:55;;;;;;;5.45;2.80;;;;;;;;;;5006524;28;20026;-73
2022/07/18 06:33:20;;;;;;;6.38;2.40;;;;;;;;;;5001598;28;20050;-73
2022/07/18 06:35:47;;;;;;;5.18;2.28;;;;;;;;;;5001426;28;20019;-73
2022/07/18 06:38:13;;;;;;;4.30;2.45;;;;;;;;;;5004490;28;20030;-73
2022/07/18 06:40:39;;;;;;;5.05;2.40;;;;;;;;;;5002336;28;20029;-73
2022/07/18 06:43:04;;;;;;;7.72;2.65;;;;;;;;;;5003623;28;20493;-72
2022/07/18 06:45:30;;;;;;;7.38;2.80;;;;;;;;;;5001853;28;20026;-74
2022/07/18 06:47:55;;;;;;;5.85;2.60;;;;;;;;;;4993732;28;20029;-74
2022/07/18 06:50:20;;;;;;;5.95;2.85;;;;;;;;;;4995102;28;20040;-73
2022/07/18 06:52:46;;;;;;;14.93;3.63;;;;;;;;;;4996863;28;20371;-75
2022/07/18 06:55:13;;;;;;;5.22;3.00;;;;;;;;;;4997506;28;20025;-73
2022/07/18 06:57:40;;;;;;;6.68;3.40;;;;;;;;;;5002566;28;20080;-74
2022/07/18 07:00:08;;;;;;;8.50;3.50;;;;;;;;;;5023445;28;20021;-73
2022/07/18 07:02:33;;;;;;;7.72;3.83;;;;;;;;;;5002919;28;20076;-74
2022/07/18 07:04:59;;;;;;;6.82;3.60;;;;;;;;;;5006025;28;20037;-73
2022/07/18 07:07:24;;;;;;;7.57;3.60;;;;;;;;;;5008798;28;20022;-75
2022/07/18 07:09:50;;;;;;;4.70;2.80;;;;;;;;;;5006163;28;20109;-75
2022/07/18 07:12:15;;;;;;;5.68;3.40;;;;;;;;;;5005582;28;20470;-75
2022/07/18 07:14:41;;;;;;;6.10;3.30;;;;;;;;;;5010577;28;20022;-73
2022/07/18 07:17:06;;;;;;;5.78;3.30;;;;;;;;;;5004235;28;20014;-72
2022/07/18 07:19:32;;;;;;;5.20;2.88;;;;;;;;;;5009198;28;20053;-74
2022/07/18 07:21:57;;;;;;;8.65;4.00;;;;;;;;;;5009859;28;20030;-72
2022/07/18 07:24:23;;;;;;;4.63;2.90;;;;;;;;;;5008870;28;20476;-72
2022/07/18 07:26:48;;;;;;;7.38;3.38;;;;;;;;;;5003920;28;20018;-73
2022/07/18 07:29:14;;;;;;;6.88;4.03;;;;;;;;;;5009786;28;20032;-74
2022/07/18 07:31:40;;;;;;;8.55;4.38;;;;;;;;;;5007436;28;20034;-74
2022/07/18 07:34:06;;;;;;;8.32;3.63;;;;;;;;;;5007586;28;20053;-74
2022/07/18 07:36:31;;;;;;;8.15;4.28;;;;;;;;;;5008674;28;20104;-74
2022/07/18 07:38:57;;;;;;;5.72;3.60;;;;;;;;;;5009655;28;20399;-75
2022/07/18 07:41:23;;;;;;;7.70;4.68;;;;;;;;;;5005095;28;20085;-74
2022/07/18 07:43:49;;;;;;;7.38;3.38;;;;;;;;;;5004659;28;20076;-72
2022/07/18 07:46:14;;;;;;;9.00;4.43;;;;;;;;;;4999552;28;20037;-72
2022/07/18 07:48:40;;;;;;;8.60;3.95;;;;;;;;;;5007134;28;20022;-73
2022/07/18 07:51:05;;;;;;;6.97;4.75;;;;;;;;;;5003777;28;20382;-73
2022/07/18 07:53:31;;;;;;;9.75;5.30;;;;;;;;;;4999979;28;20065;-73
2022/07/18 07:55:57;;;;;;;6.72;4.18;;;;;;;;;;5005097;28;20022;-72
2022/07/18 07:58:22;;;;;;;6.95;4.35;;;;;;;;;;5019062;28;20041;-72
2022/07/18 08:00:47;;;;;;;6.57;4.90;;;;;;;;;;5005681;28;20034;-73
2022/07/18 08:03:13;;;;;;;9.07;4.65;;;;;;;;;;5010462;28;20109;-72
2022/07/18 08:05:45;;;;;;;7.55;4.03;;;;;;;;;;5005573;28;20030;-73
2022/07/18 08:08:10;;;;;;;9.13;3.73;;;;;;;;;;5003625;28;20040;-72
2022/07/18 08:10:36;;;;;;;6.82;4.13;;;;;;;;;;5006541;28;20021;-73
2022/07/18 08:13:01;;;;;;;11.43;4.57;;;;;;;;;;5004224;28;20041;-73
2022/07/18 08:15:27;;;;;;;6.88;3.85;;;;;;;;;;5008563;28;21005;-73
2022/07/18 08:17:53;;;;;;;8.80;3.90;;;;;;;;;;5010097;28;20092;-72
2022/07/18 08:20:18;;;;;;;7.78;4.50;;;;;;;;;;5008433;28;20076;-73
2022/07/18 08:23:05;;;;;;;5.25;3.15;;;;;;;;;;5006716;28;20485;-73
2022/07/18 08:25:33;;;;;;;6.80;3.72;;;;;;;;;;5008457;28;20394;-72
2022/07/18 08:27:59;;;;;;;6.40;4.78;;;;;;;;;;5005464;28;20042;-73
2022/07/18 08:30:26;;;;;;;9.43;5.43;;;;;;;;;;5007529;28;20057;-72
2022/07/18 08:32:51;;;;;;;9.40;5.18;;;;;;;;;;5008347;28;20053;-72
2022/07/18 08:35:17;;;;;;;5.20;3.50;;;;;;;;;;5008437;28;20131;-72
2022/07/18 08:37:42;;;;;;;5.82;3.40;;;;;;;;;;5009051;28;20401;-72
2022/07/18 08:40:09;;;;;;;7.05;4.38;;;;;;;;;;5005353;28;20379;-73
2022/07/18 08:42:35;;;;;;;8.00;4.00;;;;;;;;;;5001811;28;20029;-72
2022/07/18 08:45:02;;;;;;;7.18;4.10;;;;;;;;;;4999372;28;20061;-73
2022/07/18 08:47:29;;;;;;;9.82;4.70;;;;;;;;;;4997908;28;20018;-73
2022/07/18 08:49:55;;;;;;;7.45;4.70;;;;;;;;;;5003267;28;20026;-73
2022/07/18 08:52:21;;;;;;;5.78;3.75;;;;;;;;;;5004232;28;20148;-72
2022/07/18 08:54:48;;;;;;;8.70;4.60;;;;;;;;;;5003097;28;20140;-73
2022/07/18 08:57:15;;;;;;;6.50;3.28;;;;;;;;;;5005044;28;20022;-73
2022/07/18 08:59:40;;;;;;;7.45;4.35;;;;;;;;;;5005575;28;20401;-73
2022/07/18 09:02:07;;;;;;;7.10;4.88;;;;;;;;;;5007928;28;20030;-72
2022/07/18 09:04:36;;;;;;;5.25;3.40;;;;;;;;;;5006223;28;20087;-73
2022/07/18 09:07:03;;;;;;;5.55;3.55;;;;;;;;;;5008802;28;20017;-73
2022/07/18 09:09:29;;;;;;;6.13;4.30;;;;;;;;;;5005172;28;20037;-73
2022/07/18 09:11:58;;;;;;;7.72;5.35;;;;;;;;;;5009311;28;20087;-72
2022/07/18 09:14:41;;;;;;;6.97;5.18;;;;;;;;;;5008850;28;20103;-72
2022/07/18 09:17:17;;;;;;;7.18;5.40;;;;;;;;;;5004551;28;20021;-72
2022/07/18 09:20:15;;;;;;;7.80;3.75;;;;;;;;;;5005965;28;20022;-73
2022/07/18 09:22:43;;;;;;;7.95;4.22;;;;;;;;;;5005381;28;20042;-73
2022/07/18 09:25:20;;;;;;;6.25;3.10;;;;;;;;;;5001709;28;20382;-72
2022/07/18 09:27:51;;;;;;;5.72;3.88;;;;;;;;;;5002985;28;20041;-72
2022/07/18 09:30:21;;;;;;;4.45;3.03;;;;;;;;;;5000924;28;20069;-73
2022/07/18 09:33:04;;;;;;;6.43;2.97;;;;;;;;;;5001756;28;21381;-73
2022/07/18 09:35:33;;;;;;;9.10;4.70;;;;;;;;;;5006195;28;20367;-72
2022/07/18 09:38:15;;;;;;;7.88;5.03;;;;;;;;;;5003181;28;20049;-73
2022/07/18 09:40:43;;;;;;;6.05;3.42;;;;;;;;;;5005112;28;20030;-73
2022/07/18 09:43:15;;;;;;;6.65;3.20;;;;;;;;;;5005457;28;20045;-72
2022/07/18 09:45:44;;;;;;;4.82;2.47;;;;;;;;;;5009242;28;20022;-73
2022/07/18 09:48:12;;;;;;;4.15;1.80;;;;;;;;;;5002851;28;20116;-73
2022/07/18 09:50:43;;;;;;;4.05;2.28;;;;;;;;;;5004996;28;20429;-72
2022/07/18 09:53:14;;;;;;;4.13;2.10;;;;;;;;;;5009644;28;20030;-72
2022/07/18 09:55:48;;;;;;;5.90;2.83;;;;;;;;;;5007979;28;20056;-72
2022/07/18 09:58:20;;;;;;;5.43;2.85;;;;;;;;;;5007101;28;20160;-73
2022/07/18 10:00:45;;;;;;;3.95;2.28;;;;;;;;;;4998220;28;20123;-73
2022/07/18 10:03:11;;;;;;;7.72;2.30;;;;;;;;;;5003903;28;20037;-72
2022/07/18 10:05:38;;;;;;;4.85;2.22;;;;;;;;;;5004066;28;20470;-73
2022/07/18 10:08:07;;;;;;;4.57;2.00;;;;;;;;;;5003662;28;20037;-73
2022/07/18 10:10:33;;;;;;;3.60;1.65;;;;;;;;;;4999669;28;20052;-73
2022/07/18 10:13:01;;;;;;;3.05;1.40;;;;;;;;;;4996766;28;20034;-72
2022/07/18 10:15:30;;;;;;;2.80;1.50;;;;;;;;;;5002380;28;20080;-72
2022/07/18 10:17:57;;;;;;;4.22;1.75;;;;;;;;;;5003957;28;20025;-73
2022/07/18 10:20:47;;;;;;;2.97;1.40;;;;;;;;;;5004879;28;20029;-72
2022/07/18 10:23:20;;;;;;;5.00;1.60;;;;;;;;;;5001920;28;20157;-74
2022/07/18 10:26:17;;;;;;;6.13;1.60;;;;;;;;;;5004178;28;20541;-73
2022/07/18 10:29:00;;;;;;;3.03;1.30;;;;;;;;;;5005622;28;20022;-72
2022/07/18 10:31:32;;;;;;;5.53;1.60;;;;;;;;;;5002019;28;20030;-73
2022/07/18 10:34:07;;;;;;;4.13;1.40;;;;;;;;;;5002124;28;20096;-72
2022/07/18 10:36:34;;;;;;;2.63;1.30;;;;;;;;;;5007664;28;20093;-73
2022/07/18 10:39:09;;;;;;;4.80;1.50;;;;;;;;;;5002494;28;20030;-73
2022/07/18 10:41:41;;;;;;;4.30;2.05;;;;;;;;;;5005524;28;20092;-73
2022/07/18 10:44:30;;;;;;;3.13;1.20;;;;;;;;;;5000362;28;20026;-73
2022/07/18 10:47:06;;;;;;;3.28;1.45;;;;;;;;;;5006558;28;20030;-72
2022/07/18 10:49:53;;;;;;;3.20;1.40;;;;;;;;;;5000554;28;20466;-72
2022/07/18 10:52:32;;;;;;;3.13;1.40;;;;;;;;;;5007711;28;20041;-72
2022/07/18 10:57:39;;;;;;;3.50;1.60;;;;;;;;;;5005362;28;20038;-72
2022/07/18 11:00:09;;;;;;;3.75;1.30;;;;;;;;;;4999816;28;20083;-72
2022/07/18 11:02:47;;;;;;;3.08;1.38;;;;;;;;;;5004353;28;20493;-72
2022/07/18 11:05:24;;;;;;;3.38;1.38;;;;;;;;;;4999904;28;20064;-73
2022/07/18 11:08:12;;;;;;;4.40;1.63;;;;;;;;;;5002800;28;20048;-73
2022/07/18 11:11:01;;;;;;;3.55;1.33;;;;;;;;;;4997852;28;20061;-72
2022/07/18 11:13:31;;;;;;;2.97;1.40;;;;;;;;;;5005221;28;20493;-72
2022/07/18 11:15:56;;;;;;;1.90;1.20;;;;;;;;;;5004344;28;20505;-72
2022/07/18 11:18:22;;;;;;;3.35;1.50;;;;;;;;;;5006201;28;20026;-73
2022/07/18 11:20:48;;;;;;;3.10;1.40;;;;;;;;;;5010582;28;20030;-72
2022/07/18 11:23:24;;;;;;;3.67;1.30;;;;;;;;;;5011978;28;20038;-73
2022/07/18 11:25:56;;;;;;;2.63;1.20;;;;;;;;;;5007499;28;20018;-72
2022/07/18 11:28:22;;;;;;;4.50;1.40;;;;;;;;;;5007949;28;20025;-74
2022/07/18 11:31:05;;;;;;;2.25;1.10;;;;;;;;;;5010255;28;20030;-72
2022/07/18 11:33:34;;;;;;;3.33;1.20;;;;;;;;;;5007779;28;20091;-72
2022/07/18 11:36:07;;;;;;;3.45;1.60;;;;;;;;;;5004940;28;20474;-72
2022/07/18 11:38:32;;;;;;;;;;;;;;;;;;5008244;28;20048;-73
2022/07/18 11:40:58;;;;;;;2.25;1.35;;;;;;;;;;5005813;28;19913;-72
2022/07/18 11:43:25;;;;;;;3.92;1.40;;;;;;;;;;5007502;28;20025;-73
2022/07/18 11:46:00;;;;;;;3.47;1.40;;;;;;;;;;5016720;28;20034;-72
2022/07/18 11:48:26;;;;;;;4.13;1.42;;;;;;;;;;5008881;28;20041;-72
2022/07/18 11:50:51;;;;;;;3.92;1.27;;;;;;;;;;5010595;28;20021;-72
2022/07/18 11:53:17;;;;;;;2.53;1.42;;;;;;;;;;5009494;28;20497;-73
2022/07/18 11:55:42;;;;;;;2.67;1.40;;;;;;;;;;5009082;28;20041;-72
2022/07/18 11:58:10;;;;;;;4.72;1.35;;;;;;;;;;5010258;28;20053;-72
2022/07/18 12:00:36;;;;;;;2.58;1.35;;;;;;;;;;5009777;28;20026;-73
2022/07/18 12:03:10;;;;;;;2.63;1.30;;;;;;;;;;5003574;28;20034;-72
2022/07/18 12:05:39;;;;;;;3.72;1.67;;;;;;;;;;5005435;28;20018;-73
2022/07/18 12:08:32;;;;;;;3.03;1.30;;;;;;;;;;5008135;28;20029;-72
2022/07/18 12:11:21;;;;;;;3.63;1.42;;;;;;;;;;5016424;28;20021;-72
2022/07/18 12:13:51;;;;;;;3.30;1.40;;;;;;;;;;5001738;28;20105;-73
2022/07/18 12:16:42;;;;;;;4.88;1.58;;;;;;;;;;5001844;28;20026;-73
2022/07/18 12:19:11;;;;;;;3.17;1.60;;;;;;;;;;5001753;28;20029;-73
2022/07/18 12:21:42;;;;;;;3.00;1.38;;;;;;;;;;5002664;28;20019;-72
2022/07/18 12:24:37;;;;;;;3.08;1.65;;;;;;;;;;5010262;28;20041;-73
2022/07/18 12:27:26;;;;;;;3.45;1.52;;;;;;;;;;5006858;28;20030;-73
2022/07/18 12:30:11;;;;;;;2.70;1.60;;;;;;;;;;5007764;28;20101;-73
2022/07/18 12:32:37;;;;;;;4.10;1.90;;;;;;;;;;5003381;28;20050;-72
2022/07/18 12:35:06;;;;;;;5.45;2.50;;;;;;;;;;5009392;28;20453;-72
2022/07/18 12:37:32;;;;;;;4.25;2.25;;;;;;;;;;5005621;28;20026;-72
2022/07/18 12:39:59;;;;;;;3.90;2.05;;;;;;;;;;5006634;28;20064;-73
2022/07/18 12:42:36;;;;;;;4.43;2.10;;;;;;;;;;5004311;28;20108;-73
2022/07/18 12:45:03;;;;;;;3.33;1.45;;;;;;;;;;5000929;28;20028;-72
2022/07/18 12:47:29;;;;;;;5.20;1.90;;;;;;;;;;5007049;28;20394;-73
2022/07/18 12:49:55;;;;;;;2.97;1.80;;;;;;;;;;5008821;28;20042;-73
2022/07/18 12:52:21;;;;;;;4.30;1.63;;;;;;;;;;5011398;28;20038;-72
2022/07/18 12:54:47;;;;;;;3.20;1.58;;;;;;;;;;5006307;28;20034;-72
2022/07/18 12:57:12;;;;;;;3.75;1.55;;;;;;;;;;5007925;28;20322;-72
2022/07/18 12:59:38;;;;;;;2.95;1.63;;;;;;;;;;4995721;28;20629;-73
2022/07/18 13:02:04;;;;;;;4.80;1.70;;;;;;;;;;5005910;28;20041;-73
2022/07/18 13:04:30;;;;;;;4.13;1.60;;;;;;;;;;5005542;28;20502;-73
2022/07/18 13:06:55;;;;;;;3.42;1.60;;;;;;;;;;5006378;28;20042;-73
2022/07/18 13:09:21;;;;;;;2.95;1.50;;;;;;;;;;5005880;28;20071;-72
2022/07/18 13:11:47;;;;;;;3.92;1.55;;;;;;;;;;5007152;28;20033;-73
2022/07/18 13:14:15;;;;;;;3.17;1.60;;;;;;;;;;5000200;28;20037;-73
2022/07/18 13:16:43;;;;;;;4.20;1.50;;;;;;;;;;5001600;28;20359;-71
2022/07/18 13:19:08;;;;;;;5.32;1.67;;;;;;;;;;5015512;28;20120;-72
2022/07/18 13:21:34;;;;;;;4.10;1.50;;;;;;;;;;5015772;28;20037;-72
2022/07/18 13:23:59;;;;;;;3.63;1.40;;;;;;;;;;5000586;28;20487;-72
2022/07/18 13:26:25;;;;;;;2.65;1.70;;;;;;;;;;5007395;28;20038;-72
2022/07/18 13:28:50;;;;;;;2.55;1.52;;;;;;;;;;5003002;28;20105;-73
2022/07/18 13:31:15;;;;;;;2.65;1.50;;;;;;;;;;4995147;28;20121;-73
2022/07/18 13:33:41;;;;;;;2.85;1.42;;;;;;;;;;5005212;28;20088;-72
2022/07/18 13:36:06;;;;;;;5.00;1.63;;;;;;;;;;5000424;28;20033;-72
2022/07/18 13:38:32;;;;;;;3.05;1.70;;;;;;;;;;4999416;28;20112;-72
2022/07/18 13:40:57;;;;;;;3.47;1.90;;;;;;;;;;5004299;28;20030;-72
2022/07/18 13:43:23;;;;;;;2.72;1.52;;;;;;;;;;5001081;28;20120;-73
2022/07/18 13:45:48;;;;;;;3.22;1.60;;;;;;;;;;5006758;28;20044;-72
2022/07/18 13:48:13;;;;;;;3.30;1.58;;;;;;;;;;5005142;28;20565;-73
2022/07/18 13:50:39;;;;;;;2.58;1.60;;;;;;;;;;5001729;28;20516;-73
2022/07/18 13:53:04;;;;;;;2.70;1.52;;;;;;;;;;5000595;28;20398;-73
2022/07/18 13:55:30;;;;;;;3.60;1.65;;;;;;;;;;5008699;28;20034;-72
2022/07/18 13:57:55;;;;;;;4.13;1.58;;;;;;;;;;5002318;28;20494;-72
2022/07/18 14:00:21;;;;;;;2.97;1.60;;;;;;;;;;5006491;28;20498;-73
2022/07/18 14:02:46;;;;;;;2.63;1.50;;;;;;;;;;5004035;28;20065;-74
2022/07/18 14:05:12;;;;;;;2.20;1.50;;;;;;;;;;5003669;28;20057;-72
2022/07/18 14:07:37;;;;;;;2.40;1.50;;;;;;;;;;5007357;28;20481;-72
2022/07/18 14:10:03;;;;;;;3.10;1.48;;;;;;;;;;4999996;28;20075;-73
2022/07/18 14:12:29;;;;;;;3.42;1.63;;;;;;;;;;5006097;28;20541;-73
2022/07/18 14:14:54;;;;;;;3.22;1.60;;;;;;;;;;5004069;28;20083;-73
2022/07/18 14:17:19;;;;;;;3.42;1.42;;;;;;;;;;5003216;28;20951;-73
2022/07/18 14:19:45;;;;;;;2.92;1.25;;;;;;;;;;5005191;28;20589;-72
2022/07/18 14:22:12;;;;;;;4.70;1.60;;;;;;;;;;5002575;28;20042;-72
2022/07/18 14:24:37;;;;;;;2.90;1.40;;;;;;;;;;4998726;28;20079;-73
2022/07/18 14:27:03;;;;;;;3.35;1.70;;;;;;;;;;4999741;28;20038;-72
2022/07/18 14:29:28;;;;;;;3.08;1.50;;;;;;;;;;5009939;28;20037;-72
2022/07/18 14:31:53;;;;;;;3.40;1.42;;;;;;;;;;5004393;28;20041;-73
2022/07/18 14:34:19;;;;;;;2.40;1.50;;;;;;;;;;5008028;28;20696;-73
2022/07/18 14:36:44;;;;;;;2.78;1.40;;;;;;;;;;5003757;28;20079;-72
2022/07/18 14:39:10;;;;;;;2.50;1.60;;;;;;;;;;5004192;28;20112;-73
2022/07/18 14:41:35;;;;;;;2.35;1.30;;;;;;;;;;5006835;28;20083;-72
2022/07/18 14:44:01;;;;;;;3.65;1.63;;;;;;;;;;5003045;28;20084;-72
2022/07/18 14:46:26;;;;;;;3.30;1.50;;;;;;;;;;4999477;28;20033;-72
2022/07/18 14:48:52;;;;;;;2.90;1.65;;;;;;;;;;5006208;28;20781;-73
2022/07/18 14:51:18;;;;;;;2.33;1.42;;;;;;;;;;5011553;28;20033;-73